sensor_id;sensor_type;location;lat;lon;timestamp;pressure;altitude;pressure_sealevel;temperature
48003;BMP280;33768;48.578;11.574;2023-09-19T00:02:17;96165.31;;;16.31
48003;BMP280;33768;48.578;11.574;2023-09-19T00:05:21;96160.91;;;16.45
48003;BMP280;33768;48.578;11.574;2023-09-19T00:08:27;96150.94;;;16.49
48003;BMP280;33768;48.578;11.574;2023-09-19T00:11:32;96157.19;;;16.50
48003;BMP280;33768;48.578;11.574;2023-09-19T00:14:36;96155.56;;;16.47
48003;BMP280;33768;48.578;11.574;2023-09-19T00:17:40;96156.03;;;16.53
48003;BMP280;33768;48.578;11.574;2023-09-19T00:20:44;96157.19;;;16.50
48003;BMP280;33768;48.578;11.574;2023-09-19T00:23:51;96158.50;;;16.49
48003;BMP280;33768;48.578;11.574;2023-09-19T00:26:55;96148.91;;;16.50
48003;BMP280;33768;48.578;11.574;2023-09-19T00:29:59;96159.13;;;16.57
48003;BMP280;33768;48.578;11.574;2023-09-19T00:33:04;96152.47;;;16.59
48003;BMP280;33768;48.578;11.574;2023-09-19T00:36:11;96144.03;;;16.58
48003;BMP280;33768;48.578;11.574;2023-09-19T00:39:15;96150.34;;;16.67
48003;BMP280;33768;48.578;11.574;2023-09-19T00:42:20;96152.38;;;16.67
48003;BMP280;33768;48.578;11.574;2023-09-19T00:45:24;96152.78;;;16.63
48003;BMP280;33768;48.578;11.574;2023-09-19T00:48:28;96159.91;;;16.66
48003;BMP280;33768;48.578;11.574;2023-09-19T00:51:32;96159.50;;;16.70
48003;BMP280;33768;48.578;11.574;2023-09-19T00:54:40;96161.09;;;16.73
48003;BMP280;33768;48.578;11.574;2023-09-19T00:57:44;96166.22;;;16.76
48003;BMP280;33768;48.578;11.574;2023-09-19T01:00:49;96163.34;;;16.84
48003;BMP280;33768;48.578;11.574;2023-09-19T01:03:53;96165.13;;;16.89
48003;BMP280;33768;48.578;11.574;2023-09-19T01:06:57;96176.44;;;16.92
48003;BMP280;33768;48.578;11.574;2023-09-19T01:10:11;96174.56;;;16.95
48003;BMP280;33768;48.578;11.574;2023-09-19T01:13:35;96176.03;;;16.96
48003;BMP280;33768;48.578;11.574;2023-09-19T01:16:50;96186.91;;;16.94
48003;BMP280;33768;48.578;11.574;2023-09-19T01:30:14;96190.13;;;17.00
48003;BMP280;33768;48.578;11.574;2023-09-19T01:33:21;96190.28;;;17.02
48003;BMP280;33768;48.578;11.574;2023-09-19T01:36:32;96189.84;;;17.05
48003;BMP280;33768;48.578;11.574;2023-09-19T01:39:40;96195.09;;;17.11
48003;BMP280;33768;48.578;11.574;2023-09-19T01:46:09;96186.53;;;17.07
48003;BMP280;33768;48.578;11.574;2023-09-19T01:49:37;96205.84;;;17.07
48003;BMP280;33768;48.578;11.574;2023-09-19T01:52:57;96200.63;;;17.11
48003;BMP280;33768;48.578;11.574;2023-09-19T01:56:08;96196.59;;;17.12
48003;BMP280;33768;48.578;11.574;2023-09-19T01:59:23;96197.78;;;17.18
48003;BMP280;33768;48.578;11.574;2023-09-19T02:02:29;96190.56;;;17.23
48003;BMP280;33768;48.578;11.574;2023-09-19T02:05:33;96192.59;;;17.22
48003;BMP280;33768;48.578;11.574;2023-09-19T02:08:37;96205.34;;;17.18
48003;BMP280;33768;48.578;11.574;2023-09-19T02:11:41;96199.97;;;17.20
48003;BMP280;33768;48.578;11.574;2023-09-19T02:14:46;96213.44;;;17.16
48003;BMP280;33768;48.578;11.574;2023-09-19T02:17:50;96207.63;;;17.12
48003;BMP280;33768;48.578;11.574;2023-09-19T02:20:54;96205.41;;;17.10
48003;BMP280;33768;48.578;11.574;2023-09-19T02:23:58;96204.69;;;17.10
48003;BMP280;33768;48.578;11.574;2023-09-19T02:27:02;96207.94;;;17.16
48003;BMP280;33768;48.578;11.574;2023-09-19T02:30:12;96202.75;;;17.20
48003;BMP280;33768;48.578;11.574;2023-09-19T02:33:16;96205.03;;;17.14
48003;BMP280;33768;48.578;11.574;2023-09-19T02:36:21;96198.78;;;17.13
48003;BMP280;33768;48.578;11.574;2023-09-19T02:39:26;96210.94;;;17.10
48003;BMP280;33768;48.578;11.574;2023-09-19T02:42:31;96221.22;;;17.10
48003;BMP280;33768;48.578;11.574;2023-09-19T02:45:36;96219.47;;;17.05
48003;BMP280;33768;48.578;11.574;2023-09-19T02:48:39;96222.78;;;17.03
48003;BMP280;33768;48.578;11.574;2023-09-19T02:51:44;96225.41;;;17.01
48003;BMP280;33768;48.578;11.574;2023-09-19T02:54:49;96231.19;;;16.96
48003;BMP280;33768;48.578;11.574;2023-09-19T02:57:55;96232.06;;;16.98
48003;BMP280;33768;48.578;11.574;2023-09-19T03:00:59;96232.06;;;16.98
48003;BMP280;33768;48.578;11.574;2023-09-19T03:04:03;96234.66;;;16.96
48003;BMP280;33768;48.578;11.574;2023-09-19T03:07:10;96228.41;;;16.96
48003;BMP280;33768;48.578;11.574;2023-09-19T03:10:15;96238.56;;;16.93
48003;BMP280;33768;48.578;11.574;2023-09-19T03:13:20;96232.72;;;16.90
48003;BMP280;33768;48.578;11.574;2023-09-19T03:16:24;96247.22;;;16.90
48003;BMP280;33768;48.578;11.574;2023-09-19T03:19:31;96250.56;;;16.89
48003;BMP280;33768;48.578;11.574;2023-09-19T03:22:38;96256.63;;;16.87
48003;BMP280;33768;48.578;11.574;2023-09-19T03:25:43;96254.31;;;16.84
48003;BMP280;33768;48.578;11.574;2023-09-19T03:28:48;96256.31;;;16.83
48003;BMP280;33768;48.578;11.574;2023-09-19T03:31:52;96263.47;;;16.86
48003;BMP280;33768;48.578;11.574;2023-09-19T03:34:58;96258.34;;;16.83
48003;BMP280;33768;48.578;11.574;2023-09-19T03:38:03;96256.63;;;16.87
48003;BMP280;33768;48.578;11.574;2023-09-19T03:41:07;96262.47;;;16.91
48003;BMP280;33768;48.578;11.574;2023-09-19T03:44:13;96266.69;;;16.92
48003;BMP280;33768;48.578;11.574;2023-09-19T03:47:18;96269.59;;;16.94
48003;BMP280;33768;48.578;11.574;2023-09-19T03:50:25;96269.28;;;16.90
48003;BMP280;33768;48.578;11.574;2023-09-19T03:53:31;96270.59;;;16.89
48003;BMP280;33768;48.578;11.574;2023-09-19T03:56:35;96266.69;;;16.92
48003;BMP280;33768;48.578;11.574;2023-09-19T03:59:39;96264.41;;;16.98
48003;BMP280;33768;48.578;11.574;2023-09-19T04:02:43;96265.72;;;16.97
48003;BMP280;33768;48.578;11.574;2023-09-19T04:05:48;96263.50;;;16.95
48003;BMP280;33768;48.578;11.574;2023-09-19T04:08:52;96263.13;;;16.99
48003;BMP280;33768;48.578;11.574;2023-09-19T04:11:56;96264.25;;;16.96
48003;BMP280;33768;48.578;11.574;2023-09-19T04:15:01;96272.91;;;16.92
48003;BMP280;33768;48.578;11.574;2023-09-19T04:18:07;96267.22;;;17.07
48003;BMP280;33768;48.578;11.574;2023-09-19T04:21:11;96281.72;;;17.08
48003;BMP280;33768;48.578;11.574;2023-09-19T04:24:15;96275.59;;;17.00
48003;BMP280;33768;48.578;11.574;2023-09-19T04:27:19;96282.50;;;16.91
48003;BMP280;33768;48.578;11.574;2023-09-19T04:30:23;96284.75;;;16.86
48003;BMP280;33768;48.578;11.574;2023-09-19T04:33:28;96282.59;;;16.84
48003;BMP280;33768;48.578;11.574;2023-09-19T04:36:32;96283.16;;;16.83
48003;BMP280;33768;48.578;11.574;2023-09-19T04:39:36;96285.75;;;16.81
48003;BMP280;33768;48.578;11.574;2023-09-19T04:42:40;96291.13;;;16.79
48003;BMP280;33768;48.578;11.574;2023-09-19T04:45:45;96283.22;;;16.75
48003;BMP280;33768;48.578;11.574;2023-09-19T04:48:50;96288.59;;;16.73
48003;BMP280;33768;48.578;11.574;2023-09-19T04:51:54;96301.63;;;16.73
48003;BMP280;33768;48.578;11.574;2023-09-19T04:54:59;96304.09;;;16.69
48003;BMP280;33768;48.578;11.574;2023-09-19T04:58:03;96311.03;;;16.70
48003;BMP280;33768;48.578;11.574;2023-09-19T05:01:07;96314.53;;;16.70
48003;BMP280;33768;48.578;11.574;2023-09-19T05:04:15;96314.38;;;16.68
48003;BMP280;33768;48.578;11.574;2023-09-19T05:07:20;96318.03;;;16.71
48003;BMP280;33768;48.578;11.574;2023-09-19T05:10:25;96323.38;;;16.69
48003;BMP280;33768;48.578;11.574;2023-09-19T05:13:29;96324.09;;;16.69
48003;BMP280;33768;48.578;11.574;2023-09-19T05:16:35;96333.25;;;16.72
48003;BMP280;33768;48.578;11.574;2023-09-19T05:19:39;96331.06;;;16.70
48003;BMP280;33768;48.578;11.574;2023-09-19T05:22:43;96328.16;;;16.68
48003;BMP280;33768;48.578;11.574;2023-09-19T05:25:50;96339.31;;;16.70
48003;BMP280;33768;48.578;11.574;2023-09-19T05:28:55;96324.25;;;16.71
48003;BMP280;33768;48.578;11.574;2023-09-19T05:31:59;96331.94;;;16.73
48003;BMP280;33768;48.578;11.574;2023-09-19T05:35:03;96334.31;;;16.76
48003;BMP280;33768;48.578;11.574;2023-09-19T05:38:07;96342.75;;;16.78
48003;BMP280;33768;48.578;11.574;2023-09-19T05:41:16;96345.50;;;16.78
48003;BMP280;33768;48.578;11.574;2023-09-19T05:44:21;96338.34;;;16.75
48003;BMP280;33768;48.578;11.574;2023-09-19T05:47:25;96348.34;;;16.71
48003;BMP280;33768;48.578;11.574;2023-09-19T05:50:29;96344.69;;;16.68
48003;BMP280;33768;48.578;11.574;2023-09-19T05:53:35;96350.22;;;16.68
48003;BMP280;33768;48.578;11.574;2023-09-19T05:56:39;96337.31;;;16.71
48003;BMP280;33768;48.578;11.574;2023-09-19T05:59:43;96347.69;;;16.80
48003;BMP280;33768;48.578;11.574;2023-09-19T06:02:55;96349.22;;;16.90
48003;BMP280;33768;48.578;11.574;2023-09-19T06:05:59;96352.78;;;17.00
48003;BMP280;33768;48.578;11.574;2023-09-19T06:09:03;96360.25;;;17.07
48003;BMP280;33768;48.578;11.574;2023-09-19T06:12:09;96357.78;;;17.11
48003;BMP280;33768;48.578;11.574;2023-09-19T06:15:14;96360.97;;;17.07
48003;BMP280;33768;48.578;11.574;2023-09-19T06:18:26;96353.38;;;16.98
48003;BMP280;33768;48.578;11.574;2023-09-19T06:21:33;96358.97;;;16.91
48003;BMP280;33768;48.578;11.574;2023-09-19T06:24:38;96362.69;;;16.86
48003;BMP280;33768;48.578;11.574;2023-09-19T06:27:42;96365.84;;;16.83
48003;BMP280;33768;48.578;11.574;2023-09-19T06:30:46;96368.19;;;16.86
48003;BMP280;33768;48.578;11.574;2023-09-19T06:33:52;96365.03;;;16.90
48003;BMP280;33768;48.578;11.574;2023-09-19T06:36:56;96383.28;;;17.02
48003;BMP280;33768;48.578;11.574;2023-09-19T06:40:00;96387.91;;;17.33
48003;BMP280;33768;48.578;11.574;2023-09-19T06:43:04;96391.34;;;17.76
48003;BMP280;33768;48.578;11.574;2023-09-19T06:46:09;96385.22;;;17.94
48003;BMP280;33768;48.578;11.574;2023-09-19T06:49:13;96380.16;;;18.36
48003;BMP280;33768;48.578;11.574;2023-09-19T06:52:17;96384.09;;;19.24
48003;BMP280;33768;48.578;11.574;2023-09-19T06:55:23;96383.16;;;20.27
48003;BMP280;33768;48.578;11.574;2023-09-19T06:58:31;96379.72;;;20.98
48003;BMP280;33768;48.578;11.574;2023-09-19T07:01:35;96387.81;;;21.46
48003;BMP280;33768;48.578;11.574;2023-09-19T07:04:41;96395.00;;;21.61
48003;BMP280;33768;48.578;11.574;2023-09-19T07:07:45;96378.50;;;21.42
48003;BMP280;33768;48.578;11.574;2023-09-19T07:10:52;96379.09;;;21.72
48003;BMP280;33768;48.578;11.574;2023-09-19T07:13:57;96383.31;;;21.85
48003;BMP280;33768;48.578;11.574;2023-09-19T07:17:02;96383.78;;;22.13
48003;BMP280;33768;48.578;11.574;2023-09-19T07:20:08;96393.63;;;21.82
48003;BMP280;33768;48.578;11.574;2023-09-19T07:23:12;96397.28;;;21.32
48003;BMP280;33768;48.578;11.574;2023-09-19T07:26:19;96396.59;;;20.81
48003;BMP280;33768;48.578;11.574;2023-09-19T07:29:23;96397.94;;;20.50
48003;BMP280;33768;48.578;11.574;2023-09-19T07:32:27;96407.44;;;20.98
48003;BMP280;33768;48.578;11.574;2023-09-19T07:35:32;96401.47;;;21.54
48003;BMP280;33768;48.578;11.574;2023-09-19T07:38:36;96410.72;;;22.11
48003;BMP280;33768;48.578;11.574;2023-09-19T07:41:41;96406.75;;;22.36
48003;BMP280;33768;48.578;11.574;2023-09-19T07:44:45;96409.19;;;22.53
48003;BMP280;33768;48.578;11.574;2023-09-19T07:47:54;96414.50;;;22.49
48003;BMP280;33768;48.578;11.574;2023-09-19T07:51:07;96408.38;;;21.96
48003;BMP280;33768;48.578;11.574;2023-09-19T07:54:12;96413.16;;;21.73
48003;BMP280;33768;48.578;11.574;2023-09-19T07:57:16;96414.47;;;21.40
48003;BMP280;33768;48.578;11.574;2023-09-19T08:00:20;96421.06;;;21.67
48003;BMP280;33768;48.578;11.574;2023-09-19T08:03:24;96430.00;;;21.97
48003;BMP280;33768;48.578;11.574;2023-09-19T08:06:28;96423.25;;;22.00
48003;BMP280;33768;48.578;11.574;2023-09-19T08:09:34;96433.03;;;22.01
48003;BMP280;33768;48.578;11.574;2023-09-19T08:12:48;96418.69;;;22.05
48003;BMP280;33768;48.578;11.574;2023-09-19T08:15:52;96426.31;;;21.72
48003;BMP280;33768;48.578;11.574;2023-09-19T08:18:57;96432.91;;;21.99
48003;BMP280;33768;48.578;11.574;2023-09-19T08:22:01;96422.72;;;22.36
48003;BMP280;33768;48.578;11.574;2023-09-19T08:25:06;96421.41;;;22.71
48003;BMP280;33768;48.578;11.574;2023-09-19T08:28:10;96428.03;;;22.55
48003;BMP280;33768;48.578;11.574;2023-09-19T08:31:22;96431.44;;;22.53
48003;BMP280;33768;48.578;11.574;2023-09-19T08:34:27;96420.56;;;22.46
48003;BMP280;33768;48.578;11.574;2023-09-19T08:37:31;96428.63;;;22.19
48003;BMP280;33768;48.578;11.574;2023-09-19T08:40:38;96432.38;;;22.35
48003;BMP280;33768;48.578;11.574;2023-09-19T08:43:44;96435.41;;;22.39
48003;BMP280;33768;48.578;11.574;2023-09-19T08:46:54;96439.66;;;22.96
48003;BMP280;33768;48.578;11.574;2023-09-19T08:50:11;96438.03;;;23.27
48003;BMP280;33768;48.578;11.574;2023-09-19T08:53:58;96434.69;;;24.52
48003;BMP280;33768;48.578;11.574;2023-09-19T08:57:07;96416.38;;;25.42
48003;BMP280;33768;48.578;11.574;2023-09-19T09:00:15;96409.66;;;25.34
48003;BMP280;33768;48.578;11.574;2023-09-19T09:03:22;96425.69;;;24.67
48003;BMP280;33768;48.578;11.574;2023-09-19T09:06:26;96438.13;;;24.01
48003;BMP280;33768;48.578;11.574;2023-09-19T09:09:34;96440.06;;;23.38
48003;BMP280;33768;48.578;11.574;2023-09-19T09:12:38;96434.66;;;23.18
48003;BMP280;33768;48.578;11.574;2023-09-19T09:15:45;96445.13;;;22.94
48003;BMP280;33768;48.578;11.574;2023-09-19T09:18:52;96448.63;;;22.61
48003;BMP280;33768;48.578;11.574;2023-09-19T09:22:10;96446.84;;;22.11
48003;BMP280;33768;48.578;11.574;2023-09-19T09:25:15;96453.44;;;21.63
48003;BMP280;33768;48.578;11.574;2023-09-19T09:28:24;96450.59;;;21.31
48003;BMP280;33768;48.578;11.574;2023-09-19T09:31:28;96457.53;;;21.00
48003;BMP280;33768;48.578;11.574;2023-09-19T09:34:34;96468.53;;;20.58
48003;BMP280;33768;48.578;11.574;2023-09-19T09:37:38;96477.00;;;20.11
48003;BMP280;33768;48.578;11.574;2023-09-19T09:40:50;96488.25;;;19.85
48003;BMP280;33768;48.578;11.574;2023-09-19T09:44:12;96490.84;;;19.65
48003;BMP280;33768;48.578;11.574;2023-09-19T09:47:47;96501.94;;;19.46
48003;BMP280;33768;48.578;11.574;2023-09-19T09:51:00;96481.03;;;20.69
48003;BMP280;33768;48.578;11.574;2023-09-19T09:54:13;96485.03;;;21.78
48003;BMP280;33768;48.578;11.574;2023-09-19T09:57:21;96480.16;;;22.54
48003;BMP280;33768;48.578;11.574;2023-09-19T10:00:27;96482.78;;;22.29
48003;BMP280;33768;48.578;11.574;2023-09-19T10:03:46;96490.31;;;21.33
48003;BMP280;33768;48.578;11.574;2023-09-19T10:06:55;96508.81;;;20.50
48003;BMP280;33768;48.578;11.574;2023-09-19T10:10:01;96517.41;;;19.77
48003;BMP280;33768;48.578;11.574;2023-09-19T10:13:14;96522.81;;;18.93
48003;BMP280;33768;48.578;11.574;2023-09-19T10:16:23;96535.94;;;18.40
48003;BMP280;33768;48.578;11.574;2023-09-19T10:19:36;96534.47;;;18.13
48003;BMP280;33768;48.578;11.574;2023-09-19T10:22:41;96541.03;;;18.01
48003;BMP280;33768;48.578;11.574;2023-09-19T10:25:46;96538.22;;;17.91
48003;BMP280;33768;48.578;11.574;2023-09-19T10:28:51;96522.09;;;18.14
48003;BMP280;33768;48.578;11.574;2023-09-19T10:31:57;96526.97;;;18.23
48003;BMP280;33768;48.578;11.574;2023-09-19T10:35:02;96529.88;;;18.51
48003;BMP280;33768;48.578;11.574;2023-09-19T10:38:12;96535.69;;;18.81
48003;BMP280;33768;48.578;11.574;2023-09-19T10:41:18;96527.06;;;19.12
48003;BMP280;33768;48.578;11.574;2023-09-19T10:44:28;96517.97;;;19.57
48003;BMP280;33768;48.578;11.574;2023-09-19T10:47:33;96518.72;;;20.04
48003;BMP280;33768;48.578;11.574;2023-09-19T10:50:49;96523.97;;;20.58
48003;BMP280;33768;48.578;11.574;2023-09-19T10:54:01;96525.78;;;20.84
48003;BMP280;33768;48.578;11.574;2023-09-19T10:57:09;96530.16;;;21.17
48003;BMP280;33768;48.578;11.574;2023-09-19T11:00:14;96520.63;;;21.50
48003;BMP280;33768;48.578;11.574;2023-09-19T11:03:27;96529.47;;;21.78
48003;BMP280;33768;48.578;11.574;2023-09-19T11:06:34;96514.41;;;22.13
48003;BMP280;33768;48.578;11.574;2023-09-19T11:12:55;96508.91;;;22.04
48003;BMP280;33768;48.578;11.574;2023-09-19T11:19:03;96512.72;;;21.88
48003;BMP280;33768;48.578;11.574;2023-09-19T11:22:11;96508.88;;;21.93
48003;BMP280;33768;48.578;11.574;2023-09-19T11:28:35;96499.78;;;22.13
48003;BMP280;33768;48.578;11.574;2023-09-19T11:31:44;96497.31;;;22.39
48003;BMP280;33768;48.578;11.574;2023-09-19T11:34:48;96491.28;;;22.43
48003;BMP280;33768;48.578;11.574;2023-09-19T11:47:34;96480.41;;;23.73
48003;BMP280;33768;48.578;11.574;2023-09-19T11:50:45;96475.38;;;23.94
48003;BMP280;33768;48.578;11.574;2023-09-19T11:53:51;96483.13;;;24.20
48003;BMP280;33768;48.578;11.574;2023-09-19T11:56:56;96488.00;;;24.58
48003;BMP280;33768;48.578;11.574;2023-09-19T12:03:16;96473.25;;;24.31
48003;BMP280;33768;48.578;11.574;2023-09-19T12:06:23;96462.34;;;24.48
48003;BMP280;33768;48.578;11.574;2023-09-19T12:09:29;96459.63;;;24.37
48003;BMP280;33768;48.578;11.574;2023-09-19T12:12:33;96460.31;;;23.75
48003;BMP280;33768;48.578;11.574;2023-09-19T12:15:39;96461.56;;;23.60
48003;BMP280;33768;48.578;11.574;2023-09-19T12:18:50;96470.81;;;23.40
48003;BMP280;33768;48.578;11.574;2023-09-19T12:22:01;96471.03;;;23.55
48003;BMP280;33768;48.578;11.574;2023-09-19T12:25:09;96463.81;;;23.28
48003;BMP280;33768;48.578;11.574;2023-09-19T12:28:15;96464.47;;;23.04
48003;BMP280;33768;48.578;11.574;2023-09-19T12:31:21;96455.41;;;23.03
48003;BMP280;33768;48.578;11.574;2023-09-19T12:34:27;96461.16;;;23.30
48003;BMP280;33768;48.578;11.574;2023-09-19T12:37:31;96459.50;;;23.61
48003;BMP280;33768;48.578;11.574;2023-09-19T12:40:39;96460.13;;;23.48
48003;BMP280;33768;48.578;11.574;2023-09-19T12:43:46;96456.00;;;23.02
48003;BMP280;33768;48.578;11.574;2023-09-19T12:46:50;96463.00;;;23.03
48003;BMP280;33768;48.578;11.574;2023-09-19T12:50:12;96452.38;;;23.58
48003;BMP280;33768;48.578;11.574;2023-09-19T12:53:27;96434.31;;;24.08
48003;BMP280;33768;48.578;11.574;2023-09-19T12:56:41;96440.84;;;24.37
48003;BMP280;33768;48.578;11.574;2023-09-19T12:59:52;96439.09;;;24.44
48003;BMP280;33768;48.578;11.574;2023-09-19T13:03:15;96436.97;;;24.69
48003;BMP280;33768;48.578;11.574;2023-09-19T13:06:35;96436.13;;;24.80
48003;BMP280;33768;48.578;11.574;2023-09-19T13:10:02;96437.22;;;24.99
48003;BMP280;33768;48.578;11.574;2023-09-19T13:13:23;96442.59;;;24.95
48003;BMP280;33768;48.578;11.574;2023-09-19T13:16:31;96439.75;;;24.82
48003;BMP280;33768;48.578;11.574;2023-09-19T13:19:47;96426.81;;;24.62
48003;BMP280;33768;48.578;11.574;2023-09-19T13:22:58;96431.75;;;24.88
48003;BMP280;33768;48.578;11.574;2023-09-19T13:26:04;96426.34;;;25.18
48003;BMP280;33768;48.578;11.574;2023-09-19T13:29:11;96412.69;;;25.24
48003;BMP280;33768;48.578;11.574;2023-09-19T13:32:16;96420.19;;;25.48
48003;BMP280;33768;48.578;11.574;2023-09-19T13:35:20;96410.88;;;25.57
48003;BMP280;33768;48.578;11.574;2023-09-19T13:38:24;96416.28;;;25.53
48003;BMP280;33768;48.578;11.574;2023-09-19T13:41:28;96408.81;;;25.58
48003;BMP280;33768;48.578;11.574;2023-09-19T13:44:33;96416.50;;;25.31
48003;BMP280;33768;48.578;11.574;2023-09-19T13:47:38;96388.97;;;25.39
48003;BMP280;33768;48.578;11.574;2023-09-19T13:50:42;96397.44;;;25.54
48003;BMP280;33768;48.578;11.574;2023-09-19T13:53:46;96388.84;;;25.78
48003;BMP280;33768;48.578;11.574;2023-09-19T13:56:51;96388.34;;;25.97
48003;BMP280;33768;48.578;11.574;2023-09-19T13:59:55;96388.31;;;25.82
48003;BMP280;33768;48.578;11.574;2023-09-19T14:02:59;96393.44;;;25.72
48003;BMP280;33768;48.578;11.574;2023-09-19T14:06:05;96380.91;;;25.31
48003;BMP280;33768;48.578;11.574;2023-09-19T14:09:09;96387.84;;;25.30
48003;BMP280;33768;48.578;11.574;2023-09-19T14:12:15;96377.59;;;25.35
48003;BMP280;33768;48.578;11.574;2023-09-19T14:15:19;96382.34;;;25.32
48003;BMP280;33768;48.578;11.574;2023-09-19T14:18:23;96378.44;;;25.24
48003;BMP280;33768;48.578;11.574;2023-09-19T14:21:27;96374.81;;;25.21
48003;BMP280;33768;48.578;11.574;2023-09-19T14:24:31;96385.84;;;24.91
48003;BMP280;33768;48.578;11.574;2023-09-19T14:27:35;96378.47;;;24.84
48003;BMP280;33768;48.578;11.574;2023-09-19T14:30:40;96379.53;;;24.77
48003;BMP280;33768;48.578;11.574;2023-09-19T14:33:44;96370.41;;;24.63
48003;BMP280;33768;48.578;11.574;2023-09-19T14:36:48;96377.00;;;24.56
48003;BMP280;33768;48.578;11.574;2023-09-19T14:39:52;96367.63;;;24.50
48003;BMP280;33768;48.578;11.574;2023-09-19T14:42:56;96359.22;;;24.37
48003;BMP280;33768;48.578;11.574;2023-09-19T14:46:07;96368.03;;;24.45
48003;BMP280;33768;48.578;11.574;2023-09-19T14:49:11;96352.41;;;24.26
48003;BMP280;33768;48.578;11.574;2023-09-19T14:52:15;96362.72;;;24.24
48003;BMP280;33768;48.578;11.574;2023-09-19T14:55:19;96354.81;;;24.32
48003;BMP280;33768;48.578;11.574;2023-09-19T14:58:24;96355.00;;;24.22
48003;BMP280;33768;48.578;11.574;2023-09-19T15:01:29;96356.00;;;24.29
48003;BMP280;33768;48.578;11.574;2023-09-19T15:04:33;96361.00;;;24.44
48003;BMP280;33768;48.578;11.574;2023-09-19T15:07:38;96357.00;;;24.09
48003;BMP280;33768;48.578;11.574;2023-09-19T15:10:49;96355.38;;;23.79
48003;BMP280;33768;48.578;11.574;2023-09-19T15:13:53;96348.06;;;23.86
48003;BMP280;33768;48.578;11.574;2023-09-19T15:16:58;96345.53;;;23.65
48003;BMP280;33768;48.578;11.574;2023-09-19T15:20:02;96356.91;;;23.33
48003;BMP280;33768;48.578;11.574;2023-09-19T15:23:10;96346.00;;;23.01
48003;BMP280;33768;48.578;11.574;2023-09-19T15:26:17;96357.16;;;22.78
48003;BMP280;33768;48.578;11.574;2023-09-19T15:29:25;96359.19;;;22.78
48003;BMP280;33768;48.578;11.574;2023-09-19T15:32:29;96352.19;;;22.77
48003;BMP280;33768;48.578;11.574;2023-09-19T15:35:33;96356.22;;;22.51
48003;BMP280;33768;48.578;11.574;2023-09-19T15:41:54;96347.88;;;22.17
48003;BMP280;33768;48.578;11.574;2023-09-19T15:44:58;96359.81;;;22.08
48003;BMP280;33768;48.578;11.574;2023-09-19T15:48:03;96349.75;;;21.92
48003;BMP280;33768;48.578;11.574;2023-09-19T15:51:08;96357.81;;;21.65
48003;BMP280;33768;48.578;11.574;2023-09-19T15:54:16;96363.00;;;21.60
48003;BMP280;33768;48.578;11.574;2023-09-19T15:57:20;96357.81;;;21.65
48003;BMP280;33768;48.578;11.574;2023-09-19T16:00:24;96354.69;;;21.71
48003;BMP280;33768;48.578;11.574;2023-09-19T16:03:28;96361.53;;;21.59
48003;BMP280;33768;48.578;11.574;2023-09-19T16:06:32;96362.16;;;21.57
48003;BMP280;33768;48.578;11.574;2023-09-19T16:09:37;96357.19;;;21.56
48003;BMP280;33768;48.578;11.574;2023-09-19T16:12:41;96358.84;;;21.49
48003;BMP280;33768;48.578;11.574;2023-09-19T16:15:46;96357.88;;;21.45
48003;BMP280;33768;48.578;11.574;2023-09-19T16:21:55;96365.41;;;21.33
48003;BMP280;33768;48.578;11.574;2023-09-19T16:24:59;96356.44;;;21.23
48003;BMP280;33768;48.578;11.574;2023-09-19T16:28:03;96358.75;;;21.06
48003;BMP280;33768;48.578;11.574;2023-09-19T16:31:09;96360.50;;;20.90
48003;BMP280;33768;48.578;11.574;2023-09-19T16:34:13;96364.38;;;20.76
48003;BMP280;33768;48.578;11.574;2023-09-19T16:37:17;96356.44;;;20.61
48003;BMP280;33768;48.578;11.574;2023-09-19T16:40:22;96354.91;;;20.49
48003;BMP280;33768;48.578;11.574;2023-09-19T16:43:27;96354.56;;;20.34
48003;BMP280;33768;48.578;11.574;2023-09-19T16:46:31;96347.47;;;20.21
48003;BMP280;33768;48.578;11.574;2023-09-19T16:49:36;96354.81;;;20.07
48003;BMP280;33768;48.578;11.574;2023-09-19T16:52:40;96356.47;;;19.92
48003;BMP280;33768;48.578;11.574;2023-09-19T16:55:45;96351.84;;;19.75
48003;BMP280;33768;48.578;11.574;2023-09-19T16:58:50;96354.06;;;19.58
48003;BMP280;33768;48.578;11.574;2023-09-19T17:01:54;96357.16;;;19.43
48003;BMP280;33768;48.578;11.574;2023-09-19T17:05:01;96356.13;;;19.30
48003;BMP280;33768;48.578;11.574;2023-09-19T17:08:08;96359.66;;;19.12
48003;BMP280;33768;48.578;11.574;2023-09-19T17:11:16;96358.47;;;18.96
48003;BMP280;33768;48.578;11.574;2023-09-19T17:14:21;96357.41;;;18.82
48003;BMP280;33768;48.578;11.574;2023-09-19T17:17:26;96361.63;;;18.64
48003;BMP280;33768;48.578;11.574;2023-09-19T17:20:31;96363.03;;;18.47
48003;BMP280;33768;48.578;11.574;2023-09-19T17:23:35;96357.47;;;18.28
48003;BMP280;33768;48.578;11.574;2023-09-19T17:26:39;96365.53;;;18.07
48003;BMP280;33768;48.578;11.574;2023-09-19T17:29:46;96363.25;;;17.87
48003;BMP280;33768;48.578;11.574;2023-09-19T17:32:50;96370.16;;;17.79
48003;BMP280;33768;48.578;11.574;2023-09-19T17:36:08;96372.56;;;17.65
48003;BMP280;33768;48.578;11.574;2023-09-19T17:39:14;96376.25;;;17.51
48003;BMP280;33768;48.578;11.574;2023-09-19T17:42:18;96369.81;;;17.39
48003;BMP280;33768;48.578;11.574;2023-09-19T17:45:22;96374.19;;;17.25
48003;BMP280;33768;48.578;11.574;2023-09-19T17:48:27;96373.88;;;17.05
48003;BMP280;33768;48.578;11.574;2023-09-19T17:51:31;96374.81;;;16.83
48003;BMP280;33768;48.578;11.574;2023-09-19T17:54:35;96374.44;;;16.70
48003;BMP280;33768;48.578;11.574;2023-09-19T17:57:39;96379.38;;;16.71
48003;BMP280;33768;48.578;11.574;2023-09-19T18:00:45;96383.72;;;16.58
48003;BMP280;33768;48.578;11.574;2023-09-19T18:03:50;96384.25;;;16.39
48003;BMP280;33768;48.578;11.574;2023-09-19T18:07:01;96382.34;;;16.25
48003;BMP280;33768;48.578;11.574;2023-09-19T18:10:06;96391.09;;;16.14
48003;BMP280;33768;48.578;11.574;2023-09-19T18:13:11;96393.13;;;16.06
48003;BMP280;33768;48.578;11.574;2023-09-19T18:16:15;96402.16;;;15.99
48003;BMP280;33768;48.578;11.574;2023-09-19T18:19:20;96407.19;;;15.94
48003;BMP280;33768;48.578;11.574;2023-09-19T18:22:26;96411.22;;;15.93